Líbí se Vám tento web? Budeme velmi rádi, pokud přidáte hodnocení +1

Seznam meteostanic a jejich METAR

Vyhledat místa podle abecedy:
A B C D E F G H I J K L M N O P Q R S T U V W X Y Z

Filtrovat:

ID stanice:
a/nebo
Název místa (fulltext):
 
Místo (ID)Naposledy načteno 
Brno - Tuřany (Brno/Tu) 19.01.2018 01:00 UTC Zobrazit data
Místo: Brno - Tuřany
Teplota: 2 °C (pocitová: -5.6 °C)
Vítr: 4 m/s z(e) 250°
Počasí: skoro zataženo
Dohlednost: 40 km
Zákl. oblačnosti: 6/8 5100 m
Vlhkost: 75%
Červená - Opava (Cervena/uL) 19.01.2018 01:00 UTC Zobrazit data
Místo: Červená - Opava
Teplota: -1 °C (pocitová: -13 °C)
Vítr: 10 m/s z(e) 270°
Počasí: sněží
Dohlednost: 8 km
Zákl. oblačnosti: 1/8 60 m
Vlhkost: 100%
České Budějovice (C.Budej/po) 19.01.2018 01:00 UTC Zobrazit data
Místo: České Budějovice
Teplota: 4 °C (pocitová: -2 °C)
Vítr: 3 m/s z(e) 280°
Počasí: skoro zataženo
Dohlednost: 35 km
Zákl. oblačnosti: 1/8 1230 m;5/8 3900 m
Vlhkost: 61%
Cheb (Cheb) 19.01.2018 01:00 UTC Zobrazit data
Místo: Cheb
Teplota: 1 °C (pocitová: -4.6 °C)
Vítr: 2 m/s z(e) 240°
Počasí: zataženo
Dohlednost: 20 km
Zákl. oblačnosti: 3/8 1200 m;7/8 3900 m
Vlhkost: 81%
Chotusice - Čáslav (Caslav) 19.01.2018 01:00 UTC Zobrazit data
Místo: Chotusice - Čáslav
Teplota: 3 °C (pocitová: -5.5 °C)
Vítr: 6 m/s z(e) 260°
Počasí: skoro zataženo
Dohlednost: 20 km
Zákl. oblačnosti: 7/8 1260 m
Vlhkost: 75%
Churáňov (Churanov) 19.01.2018 01:00 UTC Zobrazit data
Místo: Churáňov
Teplota: -2 °C (pocitová: -12 °C)
Vítr: 5 m/s z(e) 260°
Počasí: skoro zataženo
Dohlednost: 20 km
Zákl. oblačnosti: 1/8 390 m;5/8 2700 m
Vlhkost: 93%
Doksany - Litoměřice (Doksany) 19.01.2018 01:00 UTC Zobrazit data
Místo: Doksany - Litoměřice
Teplota: 2 °C (pocitová: -3.3 °C)
Vítr: 2 m/s z(e) 310°
Počasí: skoro zataženo
Dohlednost: 20 km
Zákl. oblačnosti: 1/8 1080 m;5/8 1230 m
Vlhkost: 87%
Dukovany (Dukovany) 19.01.2018 01:00 UTC Zobrazit data
Místo: Dukovany
Teplota: 2 °C (pocitová: -6.9 °C)
Vítr: 6 m/s z(e) 260°
Počasí: zataženo
Dohlednost: 20 km
Zákl. oblačnosti: 3/8 4200 m;7/8 5100 m
Vlhkost: 75%
Holešov (Holesov) 19.01.2018 01:00 UTC Zobrazit data
Místo: Holešov
Teplota: 2 °C (pocitová: -5.6 °C)
Vítr: 4 m/s z(e) 240°
Počasí: zataženo
Dohlednost: 35 km
Zákl. oblačnosti: 2/8 1800 m;7/8 5400 m
Vlhkost: 75%
Kadaň - Tušimice (Tusimice) 19.01.2018 01:00 UTC Zobrazit data
Místo: Kadaň - Tušimice
Teplota: 3 °C (pocitová: -5 °C)
Vítr: 5 m/s z(e) 280°
Počasí: zataženo
Dohlednost: 35 km
Zákl. oblačnosti: 8/8 1290 m
Vlhkost: 65%
Karlovy Vary (K.Vary) 19.01.2018 01:00 UTC Zobrazit data
Místo: Karlovy Vary
Teplota: 1 °C (pocitová: -4.6 °C)
Vítr: 2 m/s z(e) 280°
Počasí: skoro zataženo
Dohlednost: 35 km
Zákl. oblačnosti: 7/8 690 m
Vlhkost: 75%
Kocelovice (Kocelovice) 19.01.2018 01:00 UTC Zobrazit data
Místo: Kocelovice
Teplota: 2 °C (pocitová: -6.9 °C)
Vítr: 6 m/s z(e) 280°
Počasí: zataženo
Dohlednost: 20 km
Zákl. oblačnosti: 3/8 3600 m;5/8 3900 m
Vlhkost: 75%
Kopisty (Kopisty) 18.01.2018 21:00 UTC Zobrazit data
Místo: Kopisty
Teplota: 5 °C (pocitová: -4.1 °C)
Vítr: 10 m/s z(e) 280°
Počasí: skoro zataženo
Dohlednost: 35 km
Zákl. oblačnosti: 3/8 1320 m;3/8 1800 m
Vlhkost: 61%
Kostelní Myslová (K.Myslova) 19.01.2018 01:00 UTC Zobrazit data
Místo: Kostelní Myslová
Teplota: 1 °C (pocitová: -7.8 °C)
Vítr: 5 m/s z(e) 290°
Počasí: zataženo
Dohlednost: 20 km
Zákl. oblačnosti: 1/8 1050 m;7/8 4200 m
Vlhkost: 81%
Křešín - Kramolín (Kramolin) 19.01.2018 01:00 UTC Zobrazit data
Místo: Křešín - Kramolín
Teplota: 1 °C (pocitová: -7.8 °C)
Vítr: 5 m/s z(e) 270°
Počasí: skoro zataženo
Dohlednost: 20 km
Zákl. oblačnosti: 5/8 4500 m
Vlhkost: 75%
Kuchařovice - Znojmo (Kucharovic) 19.01.2018 01:00 UTC Zobrazit data
Místo: Kuchařovice - Znojmo
Teplota: 3 °C (pocitová: -5.5 °C)
Vítr: 6 m/s z(e) 290°
Počasí: oblačno
Dohlednost: 20 km
Zákl. oblačnosti: 1/8 1230 m;3/8 3900 m
Vlhkost: 70%
Liberec (Liberec) 19.01.2018 01:00 UTC Zobrazit data
Místo: Liberec
Teplota: 1 °C (pocitová: -8.9 °C)
Vítr: 7 m/s z(e) 280°
Počasí: skoro zataženo
Dohlednost: 35 km
Zákl. oblačnosti: 7/8 600 m
Vlhkost: 81%
Luká (Luka) 19.01.2018 01:00 UTC Zobrazit data
Místo: Luká
Teplota: 2 °C (pocitová: -8 °C)
Vítr: 8 m/s z(e) 280°
Počasí: skoro zataženo
Dohlednost: 20 km
Zákl. oblačnosti: 1/8 960 m;5/8 1500 m
Vlhkost: 75%
Lysá Hora (Lysa Hora) 19.01.2018 01:00 UTC Zobrazit data
Místo: Lysá Hora
Teplota: -4 °C (pocitová: -18.7 °C)
Vítr: 13 m/s z(e) 280°
Počasí: sněží
Dohlednost: 5 km
Zákl. oblačnosti: 7/8 30 m
Vlhkost: 93%
Milešovka (Milesovka) 19.01.2018 01:00 UTC Zobrazit data
Místo: Milešovka
Teplota: -1 °C (pocitová: -14.5 °C)
Vítr: 14 m/s z(e) 300°
Počasí: skoro zataženo
Dohlednost: 50 km
Zákl. oblačnosti: 7/8 690 m
Vlhkost: 93%
Mošnov (Ostrava/Mo) 19.01.2018 01:00 UTC Zobrazit data
Místo: Mošnov
Teplota: 3 °C (pocitová: -6 °C)
Vítr: 7 m/s z(e) 230°
Počasí: skoro zataženo
Dohlednost: 18 km
Zákl. oblačnosti: 4/8 900 m
Vlhkost: 75%
Náměšť nad Oslavou (Namest n/O) 19.01.2018 01:00 UTC Zobrazit data
Místo: Náměšť nad Oslavou
Teplota: 1 °C (pocitová: -8.3 °C)
Vítr: 6 m/s z(e) 280°
Počasí: skoro zataženo
Dohlednost: 25 km
Zákl. oblačnosti: 5/8 4500 m
Vlhkost: 81%
Pardubice (Pardubice) 19.01.2018 01:00 UTC Zobrazit data
Místo: Pardubice
Teplota: 4 °C (pocitová: -4.6 °C)
Vítr: 7 m/s z(e) 260°
Počasí: skoro zataženo
Dohlednost: 20 km
Zákl. oblačnosti: 7/8 1500 m
Vlhkost: 70%
Pec pod Sněžkou (Pec p.Snez) 19.01.2018 01:00 UTC Zobrazit data
Místo: Pec pod Sněžkou
Teplota: -1 °C (pocitová: -7.2 °C)
Vítr: 2 m/s z(e) 0°
Počasí: sněží
Dohlednost: 2700 m
Zákl. oblačnosti: 1/8 480 m;3/8 660 m
Vlhkost: 93%
Plzeň město - Mikulka (Plzen/Miku) 19.01.2018 01:00 UTC Zobrazit data
Místo: Plzeň město - Mikulka
Teplota: 2 °C (pocitová: -4.7 °C)
Vítr: 3 m/s z(e) 260°
Počasí: skorojasno
Dohlednost: 35 km
Zákl. oblačnosti: 1/8 1110 m
Vlhkost: 75%
Polom (Polom) 19.01.2018 01:00 UTC Zobrazit data
Místo: Polom
Teplota: -1 °C (pocitová: -9.8 °C)
Vítr: 4 m/s z(e) 250°
Počasí: zataženo
Dohlednost: 3000 m
Zákl. oblačnosti: 8/8 60 m
Vlhkost: 100%
Praha - Karlov (Praha/Kar) 19.01.2018 01:00 UTC Zobrazit data
Místo: Praha - Karlov
Teplota: 4 °C (pocitová: -3.6 °C)
Vítr: 5 m/s z(e) 280°
Počasí: skoro zataženo
Dohlednost: 20 km
Zákl. oblačnosti: 5/8 1500 m
Vlhkost: 61%
Praha - Kbely (Praha/Kbe) 19.01.2018 01:00 UTC Zobrazit data
Místo: Praha - Kbely
Teplota: 3 °C (pocitová: -5 °C)
Vítr: 5 m/s z(e) 270°
Počasí: skoro zataženo
Dohlednost: 20 km
Zákl. oblačnosti: 5/8 1500 m
Vlhkost: 70%
Praha - Libuš (Praha/Lib) 19.01.2018 01:00 UTC Zobrazit data
Místo: Praha - Libuš
Teplota: 3 °C (pocitová: -3.3 °C)
Vítr: 3 m/s z(e) 270°
Počasí: oblačno
Dohlednost: 35 km
Zákl. oblačnosti: 3/8 1500 m
Vlhkost: 70%
Praha - Ruzyně (Praha/Ru) 19.01.2018 01:00 UTC Zobrazit data
Místo: Praha - Ruzyně
Teplota: 2 °C (pocitová: -6.9 °C)
Vítr: 6 m/s z(e) 270°
Počasí: oblačno
Dohlednost: 40 km
Zákl. oblačnosti: 4/8 1500 m
Vlhkost: 75%
Přibyslav (Pribyslav) 19.01.2018 01:00 UTC Zobrazit data
Místo: Přibyslav
Teplota: 2 °C (pocitová: -6.9 °C)
Vítr: 6 m/s z(e) 270°
Počasí: skoro zataženo
Dohlednost: 20 km
Zákl. oblačnosti: 7/8 1290 m
Vlhkost: 75%
Přimda (Primda) 19.01.2018 01:00 UTC Zobrazit data
Místo: Přimda
Teplota: 0 °C (pocitová: -9.2 °C)
Vítr: 5 m/s z(e) 270°
Počasí: skoro zataženo
Dohlednost: 35 km
Zákl. oblačnosti: 6/8 4500 m
Vlhkost: 93%
Šerák (Serak) 19.01.2018 01:00 UTC Zobrazit data
Místo: Šerák
Teplota: -5 °C (pocitová: -18.9 °C)
Vítr: 10 m/s z(e) 290°
Počasí: sněží
Dohlednost: 500 m
Zákl. oblačnosti: 8/8 30 m
Vlhkost: 100%
Svratouch (Svratouch) 19.01.2018 01:00 UTC Zobrazit data
Místo: Svratouch
Teplota: 0 °C (pocitová: -10.4 °C)
Vítr: 7 m/s z(e) 290°
Počasí: sněží
Dohlednost: 35 km
Zákl. oblačnosti: 7/8 750 m
Vlhkost: 80%
Temelín (Temelin) 19.01.2018 01:00 UTC Zobrazit data
Místo: Temelín
Teplota: 2 °C (pocitová: -6.4 °C)
Vítr: 5 m/s z(e) 270°
Počasí: zataženo
Dohlednost: 20 km
Zákl. oblačnosti: 4/8 1050 m;7/8 4200 m
Vlhkost: 70%
Ústí nad Labem - Kočkov (Usti n/L) 19.01.2018 01:00 UTC Zobrazit data
Místo: Ústí nad Labem - Kočkov
Teplota: 1 °C (pocitová: -4.6 °C)
Vítr: 2 m/s z(e) 250°
Počasí: sněží
Dohlednost: 35 km
Zákl. oblačnosti: 8/8 480 m
Vlhkost: 93%
Ústí nad Orlicí (Usti n/O) 19.01.2018 01:00 UTC Zobrazit data
Místo: Ústí nad Orlicí
Teplota: 2 °C (pocitová: -8.1 °C)
Vítr: 9 m/s z(e) 260°
Počasí: zataženo
Dohlednost: 35 km
Zákl. oblačnosti: 7/8 900 m
Vlhkost: 81%
Aalborg (EKYT) 18.01.2018 15:50 UTC Zobrazit METAR
EKYT 181550Z 31003KT 1500 BR FEW006 BKN010 02/01 Q0991 R26L/290195
Aarhus (EKAH) 09.01.2018 18:50 UTC Zobrazit METAR
EKAH 091850Z 11013KT CAVOK 04/00 Q1017
Abu Dhabi (OMAA) 19.01.2018 01:00 UTC Zobrazit METAR
OMAA 190100Z 17001KT CAVOK 15/12 Q1016 NOSIG
Abuja (DNAA) 18.01.2018 11:00 UTC Zobrazit METAR
DNAA 181100Z VRB03KT 2000 HZ NSC 31/M02 Q1014 BECMG 3000
Accra (DGAA) 19.01.2018 01:00 UTC Zobrazit METAR
DGAA 190100Z 24008KT 9999 FEW009 BKN025 27/26 Q1011 NOSIG
Addis Abeba (HAAB) 18.01.2018 20:00 UTC Zobrazit METAR
HAAB 182000Z 06006KT 9999 FEW025 13/M01 Q1026
Agana (PGUM) 19.01.2018 00:54 UTC Zobrazit METAR
PGUM 190054Z 06018G22KT 10SM BKN028 32/23 A2990 RMK AO2 SLP118 T03170233
Ahe Island (NTHE) Zatím nenačteno  
Akureyri (BIAR) 19.01.2018 01:00 UTC Zobrazit METAR
BIAR 190100Z 00000KT 9999 OVC044 M05/M07 Q0996
Almaty (UAAA) Zatím nenačteno  
Amman (OJAM) 18.01.2018 18:00 UTC Zobrazit METAR
OJAM 181800Z 25012KT 5000 HZ FEW030 11/02 Q1007 NOSIG
Amsterdam (EHAM) 18.01.2018 23:55 UTC Zobrazit METAR
EHAM 182355Z 23006KT 9999 FEW015 SCT038 03/02 Q1001 TEMPO 7000 SHRAGS
Antananarivo (FMMI) 19.01.2018 01:00 UTC Zobrazit METAR
FMMI 190100Z 36001KT 9999 FEW017 15/14 Q1014 NOSIG
1 2 3 ... 9 Další
Reklama

Počasí na Váš email

Emaily jsou bez reklamy a bez spamu



Odhlásit newsletter

Reklama


Lunární kalendář

  • 24.01.
  • 31.01.
  • 07.02.
  • 15.02.



Jsme na Google Plus

Reklama
Povinné ručení



Může Vás také zajímat:


Reklama